Hedvig Bulker — OWYM2 — position and weather

sailwx.info

Track history (hours):
 
Tides and Currents Weather Stations Pressure Air Temp Water Temp Dewpoint Dewpoint Depression Visibility Wind Speed Wind Dir Waves Ship Positions

Hedvig Bulker

Last reported at 2017-Nov-18 02:13 UTC. Time now 2017-Nov-18 02:59 UTC.
Position N 51°43' E 002°32'.

Length 175 m; draft 8.1 m.

Type: Ship. MMSI: 219594000.

Date/timePositionNaut miles runAvg speedWind from/ knotsBaromVisibWave heightAir tempDewpointWater temp
2017-Nov-18 02:13N 51°43' E 002°32'1014.7
2017-Nov-18 01:32N 51°36' E 002°22'215.0
2017-Nov-18 01:23N 51°34' E 002°20'614.8
2017-Nov-18 01:00N 51°29' E 002°14'714.6
2017-Nov-18 00:30N 51°23' E 002°07'714.3
2017-Nov-18 00:00N 51°16' E 002°06'815.0
2017-Nov-17 23:30N 51°12' E 001°57'815.4
2017-Nov-17 23:00N 51°08' E 001°46'815.3
2017-Nov-17 22:30N 51°02' E 001°38'815.0
2017-Nov-17 22:00N 50°56' E 001°30'713.8
2017-Nov-17 21:30N 50°50' E 001°25'5212.7
2017-Nov-17 17:26N 50°22' E 000°17'512.6
2017-Nov-17 17:00N 50°21' E 000°09'612.3
2017-Nov-17 16:30N 50°19' W 000°00'612.0
2017-Nov-17 15:58N 50°17' W 000°10'511.7
2017-Nov-17 15:30N 50°16' W 000°18'611.3
2017-Nov-17 14:56N 50°14' W 000°28'510.9
2017-Nov-17 14:29N 50°13' W 000°35'610.5
2017-Nov-17 13:57N 50°12' W 000°43'610.2
2017-Nov-17 13:23N 50°10' W 000°52'410.0
2017-Nov-17 13:00N 50°09' W 000°58'5 9.8
2017-Nov-17 12:30N 50°08' W 001°05'5 9.9
2017-Nov-17 12:00N 50°06' W 001°13'510.4
2017-Nov-17 11:30N 50°05' W 001°20'611.1
2017-Nov-17 11:00N 50°04' W 001°29'611.9
2017-Nov-17 10:31N 50°02' W 001°38'612.6
2017-Nov-17 10:00N 50°00' W 001°47'713.4
2017-Nov-17 09:30N 49°58' W 001°57'714.0
2017-Nov-17 09:00N 49°57' W 002°08'1214.4
2017-Nov-17 08:10N 49°54' W 002°26'1614.2
2017-Nov-17 07:03N 49°49' W 002°50'214.0
2017-Nov-17 06:55N 49°49' W 002°52'1413.9
2017-Nov-17 05:54N 49°42' W 003°12'6813.4
2017-Nov-17 00:50N 49°09' W 004°43'1512.7
2017-Nov-16 23:40N 49°02' W 005°03'212.2
2017-Nov-16 23:30N 49°01' W 005°05'612.1
2017-Nov-16 22:59N 48°57' W 005°13'611.7
2017-Nov-16 22:29N 48°54' W 005°21'611.4
2017-Nov-16 22:00N 48°51' W 005°28'610.9
2017-Nov-16 21:29N 48°48' W 005°35'610.9
2017-Nov-16 20:56N 48°43' W 005°40'711.1
2017-Nov-16 20:20N 48°37' W 005°45'511.3
2017-Nov-16 19:53N 48°33' W 005°49'511.3
2017-Nov-16 19:26N 48°28' W 005°52'511.5
2017-Nov-16 18:58N 48°24' W 005°56'611.6
2017-Nov-16 18:28N 48°18' W 005°60'611.7
2017-Nov-16 17:59N 48°13' W 006°04'611.9
2017-Nov-16 17:30N 48°08' W 006°08'912.2
2017-Nov-16 16:44N 48°00' W 006°14'512.3
2017-Nov-16 16:18N 47°55' W 006°18'412.5
2017-Nov-16 16:00N 47°52' W 006°20'712.8
2017-Nov-16 15:29N 47°46' W 006°25'612.8
2017-Nov-16 14:58N 47°40' W 006°29'713.0
2017-Nov-16 14:27N 47°34' W 006°34'713.6
2017-Nov-16 13:58N 47°28' W 006°39'713.4
2017-Nov-16 13:26N 47°22' W 006°44'712.9
2017-Nov-16 12:53N 47°16' W 006°48'612.8
2017-Nov-16 12:26N 47°11' W 006°52'47712.4
2017-Nov-14 22:03N 39°32' W 009°51'112.2
2017-Nov-14 21:59N 39°31' W 009°51'612.0
2017-Nov-14 21:30N 39°25' W 009°51'612.2
2017-Nov-14 21:00N 39°19' W 009°51'612.4
2017-Nov-14 20:30N 39°13' W 009°51'612.3
2017-Nov-14 20:00N 39°07' W 009°51'612.2
2017-Nov-14 19:30N 39°01' W 009°52'612.0
2017-Nov-14 19:00N 38°55' W 009°51'612.2
2017-Nov-14 18:30N 38°49' W 009°52'612.4
2017-Nov-14 18:00N 38°43' W 009°51'612.1
2017-Nov-14 17:30N 38°37' W 009°50'612.1
2017-Nov-14 17:00N 38°31' W 009°48'612.1
2017-Nov-14 16:30N 38°25' W 009°46'611.5
2017-Nov-14 16:00N 38°19' W 009°44'711.8
2017-Nov-14 15:27N 38°13' W 009°43'612.3
2017-Nov-14 14:59N 38°07' W 009°41'612.4
2017-Nov-14 14:30N 38°02' W 009°39'712.4
2017-Nov-14 13:57N 37°55' W 009°37'812.4
2017-Nov-14 13:19N 37°47' W 009°35'512.3
2017-Nov-14 12:53N 37°42' W 009°34'512.6
2017-Nov-14 12:30N 37°37' W 009°32'42310.8
2017-Nov-12 21:28N 36°40' W 000°47'1012.0
2017-Nov-12 20:41N 36°42' W 000°35'211.7
2017-Nov-12 20:30N 36°42' W 000°33'711.8
2017-Nov-12 19:55N 36°44' W 000°24'512.0
2017-Nov-12 19:30N 36°45' W 000°18'612.1
2017-Nov-12 19:00N 36°46' W 000°11'612.1
2017-Nov-12 18:30N 36°47' W 000°03'611.9
2017-Nov-12 18:00N 36°48' E 000°04'611.7
2017-Nov-12 17:30N 36°49' E 000°11'611.7
2017-Nov-12 17:00N 36°50' E 000°19'611.5
2017-Nov-12 16:29N 36°52' E 000°26'  
2017-Nov-10 03:27N 36°38' E 013°41'511.4
2017-Nov-10 03:00N 36°36' E 013°47'611.4
2017-Nov-10 02:29N 36°34' E 013°54'611.7
2017-Nov-10 02:00N 36°33' E 014°00'611.9
2017-Nov-10 01:30N 36°31' E 014°07'611.8
2017-Nov-10 01:00N 36°29' E 014°14'611.6
2017-Nov-10 00:30N 36°27' E 014°21'611.4
2017-Nov-10 00:00N 36°25' E 014°28'611.5
2017-Nov-09 23:30N 36°23' E 014°35'611.7
2017-Nov-09 23:00N 36°21' E 014°42'612.0
2017-Nov-09 22:28N 36°19' E 014°49'  
Track history (hours):
 
Tides and Currents Weather Stations Pressure Air Temp Water Temp Dewpoint Dewpoint Depression Visibility Wind Speed Wind Dir Waves Ship Positions

Hedvig Bulker

Last reported at 2017-Nov-18 02:13 UTC. Time now 2017-Nov-18 02:59 UTC.
Position N 51°43' E 002°32'.

Length 175 m; draft 8.1 m.

Type: Ship. MMSI: 219594000.

Date/timePositionNaut miles runAvg speedWind from/ knotsBaromVisibWave heightAir tempDewpointWater temp
2017-Nov-18 02:13N 51°43' E 002°32'1014.7
2017-Nov-18 01:32N 51°36' E 002°22'215.0
2017-Nov-18 01:23N 51°34' E 002°20'614.8
2017-Nov-18 01:00N 51°29' E 002°14'714.6
2017-Nov-18 00:30N 51°23' E 002°07'714.3
2017-Nov-18 00:00N 51°16' E 002°06'815.0
2017-Nov-17 23:30N 51°12' E 001°57'815.4
2017-Nov-17 23:00N 51°08' E 001°46'815.3
2017-Nov-17 22:30N 51°02' E 001°38'815.0
2017-Nov-17 22:00N 50°56' E 001°30'713.8
2017-Nov-17 21:30N 50°50' E 001°25'5212.7
2017-Nov-17 17:26N 50°22' E 000°17'512.6
2017-Nov-17 17:00N 50°21' E 000°09'612.3
2017-Nov-17 16:30N 50°19' W 000°00'612.0
2017-Nov-17 15:58N 50°17' W 000°10'511.7
2017-Nov-17 15:30N 50°16' W 000°18'611.3
2017-Nov-17 14:56N 50°14' W 000°28'510.9
2017-Nov-17 14:29N 50°13' W 000°35'610.5
2017-Nov-17 13:57N 50°12' W 000°43'610.2
2017-Nov-17 13:23N 50°10' W 000°52'410.0
2017-Nov-17 13:00N 50°09' W 000°58'5 9.8
2017-Nov-17 12:30N 50°08' W 001°05'5 9.9
2017-Nov-17 12:00N 50°06' W 001°13'510.4
2017-Nov-17 11:30N 50°05' W 001°20'611.1
2017-Nov-17 11:00N 50°04' W 001°29'611.9
2017-Nov-17 10:31N 50°02' W 001°38'612.6
2017-Nov-17 10:00N 50°00' W 001°47'713.4
2017-Nov-17 09:30N 49°58' W 001°57'714.0
2017-Nov-17 09:00N 49°57' W 002°08'1214.4
2017-Nov-17 08:10N 49°54' W 002°26'1614.2
2017-Nov-17 07:03N 49°49' W 002°50'214.0
2017-Nov-17 06:55N 49°49' W 002°52'1413.9
2017-Nov-17 05:54N 49°42' W 003°12'6813.4
2017-Nov-17 00:50N 49°09' W 004°43'1512.7
2017-Nov-16 23:40N 49°02' W 005°03'212.2
2017-Nov-16 23:30N 49°01' W 005°05'612.1
2017-Nov-16 22:59N 48°57' W 005°13'611.7
2017-Nov-16 22:29N 48°54' W 005°21'611.4
2017-Nov-16 22:00N 48°51' W 005°28'610.9
2017-Nov-16 21:29N 48°48' W 005°35'610.9
2017-Nov-16 20:56N 48°43' W 005°40'711.1
2017-Nov-16 20:20N 48°37' W 005°45'511.3
2017-Nov-16 19:53N 48°33' W 005°49'511.3
2017-Nov-16 19:26N 48°28' W 005°52'511.5
2017-Nov-16 18:58N 48°24' W 005°56'611.6
2017-Nov-16 18:28N 48°18' W 005°60'611.7
2017-Nov-16 17:59N 48°13' W 006°04'611.9
2017-Nov-16 17:30N 48°08' W 006°08'912.2
2017-Nov-16 16:44N 48°00' W 006°14'512.3
2017-Nov-16 16:18N 47°55' W 006°18'412.5
2017-Nov-16 16:00N 47°52' W 006°20'712.8
2017-Nov-16 15:29N 47°46' W 006°25'612.8
2017-Nov-16 14:58N 47°40' W 006°29'713.0
2017-Nov-16 14:27N 47°34' W 006°34'713.6
2017-Nov-16 13:58N 47°28' W 006°39'713.4
2017-Nov-16 13:26N 47°22' W 006°44'712.9
2017-Nov-16 12:53N 47°16' W 006°48'612.8
2017-Nov-16 12:26N 47°11' W 006°52'47712.4
2017-Nov-14 22:03N 39°32' W 009°51'112.2
2017-Nov-14 21:59N 39°31' W 009°51'612.0
2017-Nov-14 21:30N 39°25' W 009°51'612.2
2017-Nov-14 21:00N 39°19' W 009°51'612.4
2017-Nov-14 20:30N 39°13' W 009°51'612.3
2017-Nov-14 20:00N 39°07' W 009°51'612.2
2017-Nov-14 19:30N 39°01' W 009°52'612.0
2017-Nov-14 19:00N 38°55' W 009°51'612.2
2017-Nov-14 18:30N 38°49' W 009°52'612.4
2017-Nov-14 18:00N 38°43' W 009°51'612.1
2017-Nov-14 17:30N 38°37' W 009°50'612.1
2017-Nov-14 17:00N 38°31' W 009°48'612.1
2017-Nov-14 16:30N 38°25' W 009°46'611.5
2017-Nov-14 16:00N 38°19' W 009°44'711.8
2017-Nov-14 15:27N 38°13' W 009°43'612.3
2017-Nov-14 14:59N 38°07' W 009°41'612.4
2017-Nov-14 14:30N 38°02' W 009°39'712.4
2017-Nov-14 13:57N 37°55' W 009°37'812.4
2017-Nov-14 13:19N 37°47' W 009°35'512.3
2017-Nov-14 12:53N 37°42' W 009°34'512.6
2017-Nov-14 12:30N 37°37' W 009°32'42310.8
2017-Nov-12 21:28N 36°40' W 000°47'1012.0
2017-Nov-12 20:41N 36°42' W 000°35'211.7
2017-Nov-12 20:30N 36°42' W 000°33'711.8
2017-Nov-12 19:55N 36°44' W 000°24'512.0
2017-Nov-12 19:30N 36°45' W 000°18'612.1
2017-Nov-12 19:00N 36°46' W 000°11'612.1
2017-Nov-12 18:30N 36°47' W 000°03'611.9
2017-Nov-12 18:00N 36°48' E 000°04'611.7
2017-Nov-12 17:30N 36°49' E 000°11'611.7
2017-Nov-12 17:00N 36°50' E 000°19'611.5
2017-Nov-12 16:29N 36°52' E 000°26'  
2017-Nov-10 03:27N 36°38' E 013°41'511.4
2017-Nov-10 03:00N 36°36' E 013°47'611.4
2017-Nov-10 02:29N 36°34' E 013°54'611.7
2017-Nov-10 02:00N 36°33' E 014°00'611.9
2017-Nov-10 01:30N 36°31' E 014°07'611.8
2017-Nov-10 01:00N 36°29' E 014°14'611.6
2017-Nov-10 00:30N 36°27' E 014°21'611.4
2017-Nov-10 00:00N 36°25' E 014°28'611.5
2017-Nov-09 23:30N 36°23' E 014°35'611.7
2017-Nov-09 23:00N 36°21' E 014°42'612.0
2017-Nov-09 22:28N 36°19' E 014°49'  

Dump ship's entire track history